createdAt,value
2023-06-17T00:00:56.884Z,4.73
2023-06-17T00:03:24.069Z,4.27
2023-06-17T00:05:52.928Z,5.03
2023-06-17T00:08:21.652Z,4.80
2023-06-17T00:10:49.440Z,4.70
2023-06-17T00:13:22.627Z,4.13
2023-06-17T00:15:57.900Z,4.87
2023-06-17T00:18:26.226Z,4.53
2023-06-17T00:20:54.346Z,4.70
2023-06-17T00:23:22.012Z,4.50
2023-06-17T00:25:49.879Z,4.57
2023-06-17T00:28:17.375Z,4.17
2023-06-17T00:30:49.978Z,4.20
2023-06-17T00:33:16.899Z,4.23
2023-06-17T00:35:43.980Z,4.40
2023-06-17T00:38:11.037Z,4.43
2023-06-17T00:40:38.150Z,4.23
2023-06-17T00:43:05.441Z,4.00
2023-06-17T00:45:39.839Z,4.67
2023-06-17T00:48:08.997Z,4.73
2023-06-17T00:50:37.552Z,4.47
2023-06-17T00:53:05.402Z,5.17
2023-06-17T00:55:33.609Z,4.60
2023-06-17T00:58:01.887Z,4.50
2023-06-17T01:00:29.310Z,4.87
2023-06-17T01:02:57.902Z,4.73
2023-06-17T01:05:25.538Z,4.10
2023-06-17T01:08:20.891Z,4.53
2023-06-17T01:11:00.910Z,4.63
2023-06-17T01:13:29.337Z,4.97
2023-06-17T01:15:58.242Z,4.33
2023-06-17T01:18:29.483Z,4.30
2023-06-17T01:20:56.946Z,4.57
2023-06-17T01:23:32.724Z,4.17
2023-06-17T01:26:02.501Z,4.70
2023-06-17T01:28:30.545Z,4.33
2023-06-17T01:30:58.454Z,4.50
2023-06-17T01:33:26.568Z,4.53
2023-06-17T01:36:02.581Z,4.63
2023-06-17T01:38:43.166Z,5.70
2023-06-17T01:41:29.001Z,5.10
2023-06-17T01:43:57.548Z,4.93
2023-06-17T01:46:28.497Z,5.43
2023-06-17T01:48:56.203Z,5.67
2023-06-17T01:51:23.800Z,5.47
2023-06-17T01:53:51.784Z,5.23
2023-06-17T01:56:21.181Z,5.50
2023-06-17T01:58:48.085Z,5.37
2023-06-17T02:01:15.426Z,6.23
2023-06-17T02:03:43.627Z,5.83
2023-06-17T02:06:10.622Z,6.00
2023-06-17T02:08:38.484Z,5.50
2023-06-17T02:11:05.427Z,6.00
2023-06-17T02:13:32.305Z,5.50
2023-06-17T02:15:59.188Z,4.97
2023-06-17T02:18:26.533Z,4.90
2023-06-17T02:20:53.858Z,4.33
2023-06-17T02:23:21.150Z,4.27
2023-06-17T02:25:47.898Z,4.37
2023-06-17T02:28:14.972Z,4.77
2023-06-17T02:30:41.763Z,4.67
2023-06-17T02:33:08.600Z,4.57
2023-06-17T02:35:36.245Z,4.33
2023-06-17T02:38:03.796Z,4.70
2023-06-17T02:40:30.896Z,5.10
2023-06-17T02:42:57.721Z,4.13
2023-06-17T02:45:24.649Z,4.37
2023-06-17T02:47:52.123Z,4.70
2023-06-17T02:50:23.032Z,4.93
2023-06-17T02:52:57.475Z,4.30
2023-06-17T02:55:26.806Z,4.90
2023-06-17T02:57:54.241Z,4.40
2023-06-17T03:00:22.091Z,4.50
2023-06-17T03:02:50.177Z,5.10
2023-06-17T03:05:18.096Z,4.53
2023-06-17T03:07:46.950Z,5.00
2023-06-17T03:10:13.924Z,4.50
2023-06-17T03:12:41.037Z,4.70
2023-06-17T03:15:09.540Z,4.63
2023-06-17T03:17:36.808Z,4.70
2023-06-17T03:20:04.837Z,4.63
2023-06-17T03:22:31.860Z,4.60
2023-06-17T03:24:58.703Z,4.60
2023-06-17T03:27:25.638Z,5.17
2023-06-17T03:29:52.421Z,4.90
2023-06-17T03:32:19.282Z,5.00
2023-06-17T03:34:47.273Z,5.17
2023-06-17T03:37:14.176Z,4.90
2023-06-17T03:39:41.024Z,5.27
2023-06-17T03:42:09.301Z,5.60
2023-06-17T03:44:36.156Z,4.87
2023-06-17T03:47:04.185Z,4.97
2023-06-17T03:49:31.122Z,5.80
2023-06-17T03:51:57.982Z,4.90
2023-06-17T03:54:24.967Z,5.43
2023-06-17T03:56:51.858Z,4.93
2023-06-17T03:59:19.012Z,4.93
2023-06-17T04:01:45.876Z,5.27
2023-06-17T04:04:12.979Z,5.40
2023-06-17T04:06:41.410Z,4.83
2023-06-17T04:09:08.403Z,4.77
2023-06-17T04:11:35.358Z,4.97
2023-06-17T04:14:02.321Z,4.80
2023-06-17T04:16:31.932Z,4.73
2023-06-17T04:18:59.651Z,5.37
2023-06-17T04:21:27.003Z,5.10
2023-06-17T04:23:54.330Z,5.10
2023-06-17T04:26:21.351Z,5.23
2023-06-17T04:28:49.505Z,5.00
2023-06-17T04:31:16.621Z,5.20
2023-06-17T04:33:43.549Z,4.93
2023-06-17T04:36:10.601Z,4.90
2023-06-17T04:38:43.454Z,5.00
2023-06-17T04:41:10.327Z,5.43
2023-06-17T04:43:39.924Z,5.17
2023-06-17T04:46:07.483Z,4.87
2023-06-17T04:48:34.904Z,4.93
2023-06-17T04:51:01.863Z,5.40
2023-06-17T04:53:28.724Z,5.93
2023-06-17T04:55:55.617Z,5.20
2023-06-17T04:58:22.750Z,5.33
2023-06-17T05:00:49.686Z,5.73
2023-06-17T05:03:16.747Z,5.47
2023-06-17T05:05:43.598Z,6.37
2023-06-17T05:08:10.552Z,7.47
2023-06-17T05:10:37.340Z,6.30
2023-06-17T05:13:04.204Z,6.47
2023-06-17T05:15:31.009Z,6.20
2023-06-17T05:17:58.002Z,6.33
2023-06-17T05:20:24.851Z,6.40
2023-06-17T05:22:51.648Z,5.60
2023-06-17T05:25:18.512Z,5.33
2023-06-17T05:27:45.321Z,5.47
2023-06-17T05:30:12.380Z,5.90
2023-06-17T05:32:39.508Z,5.60
2023-06-17T05:35:06.814Z,5.87
2023-06-17T05:37:33.975Z,5.80
2023-06-17T05:40:00.950Z,5.50
2023-06-17T05:42:27.998Z,6.10
2023-06-17T05:44:54.869Z,5.50
2023-06-17T05:47:21.847Z,5.73
2023-06-17T05:49:48.817Z,6.03
2023-06-17T05:52:15.796Z,5.90
2023-06-17T05:54:42.581Z,5.67
2023-06-17T05:57:09.545Z,5.87
2023-06-17T05:59:36.953Z,5.90
2023-06-17T06:02:04.217Z,5.10
2023-06-17T06:04:31.366Z,5.60
2023-06-17T06:06:58.203Z,5.47
2023-06-17T06:09:25.321Z,6.37
2023-06-17T06:11:52.844Z,5.43
2023-06-17T06:14:19.738Z,6.03
2023-06-17T06:16:46.714Z,6.10
2023-06-17T06:19:13.790Z,5.03
2023-06-17T06:21:40.822Z,5.60
2023-06-17T06:24:08.191Z,5.00
2023-06-17T06:26:35.265Z,5.57
2023-06-17T06:29:02.378Z,5.27
2023-06-17T06:31:31.751Z,4.90
2023-06-17T06:33:58.934Z,5.10
2023-06-17T06:36:26.300Z,5.30
2023-06-17T06:38:53.473Z,5.70
2023-06-17T06:41:20.690Z,5.37
2023-06-17T06:43:47.951Z,4.57
2023-06-17T06:46:16.336Z,4.80
2023-06-17T06:48:43.727Z,4.87
2023-06-17T06:51:10.652Z,4.87
2023-06-17T06:53:37.574Z,4.37
2023-06-17T06:56:04.596Z,4.80
2023-06-17T06:58:33.900Z,4.83
2023-06-17T07:01:00.907Z,4.63
2023-06-17T07:03:28.252Z,4.90
2023-06-17T07:05:55.165Z,4.50
2023-06-17T07:08:22.112Z,4.67
2023-06-17T07:10:49.033Z,4.40
2023-06-17T07:13:18.445Z,5.13
2023-06-17T07:15:46.369Z,4.00
2023-06-17T07:18:16.038Z,4.63
2023-06-17T07:20:43.206Z,4.30
2023-06-17T07:23:10.214Z,4.53
2023-06-17T07:25:38.162Z,4.33
2023-06-17T07:28:06.969Z,4.40
2023-06-17T07:30:34.075Z,4.00
2023-06-17T07:33:01.291Z,4.20
2023-06-17T07:35:28.275Z,3.70
2023-06-17T07:37:55.141Z,4.03
2023-06-17T07:40:22.521Z,4.30
2023-06-17T07:42:49.881Z,4.30
2023-06-17T07:45:17.056Z,3.57
2023-06-17T07:47:43.996Z,4.27
2023-06-17T07:50:11.397Z,4.17
2023-06-17T07:52:38.642Z,4.47
2023-06-17T07:55:08.369Z,3.97
2023-06-17T07:57:35.608Z,4.20
2023-06-17T08:00:02.818Z,3.50
2023-06-17T08:02:29.789Z,4.00
2023-06-17T08:04:56.778Z,4.60
2023-06-17T08:07:23.640Z,4.03
2023-06-17T08:09:50.505Z,4.17
2023-06-17T08:12:17.369Z,3.73
2023-06-17T08:14:44.339Z,4.10
2023-06-17T08:17:11.211Z,4.30
2023-06-17T08:19:38.329Z,3.90
2023-06-17T08:22:05.631Z,3.83
2023-06-17T08:24:32.712Z,4.13
2023-06-17T08:26:59.969Z,4.13
2023-06-17T08:29:27.361Z,4.03
2023-06-17T08:31:54.851Z,4.13
2023-06-17T08:34:25.217Z,3.63
2023-06-17T08:36:55.924Z,3.90
2023-06-17T08:39:23.108Z,3.87
2023-06-17T08:41:51.028Z,4.00
2023-06-17T08:44:22.739Z,3.50
2023-06-17T08:46:52.628Z,3.70
2023-06-17T08:49:20.264Z,3.97
2023-06-17T08:51:50.329Z,3.87
2023-06-17T08:54:18.196Z,3.80
2023-06-17T08:56:46.186Z,4.20
2023-06-17T08:59:13.226Z,3.97
2023-06-17T09:01:41.482Z,3.87
2023-06-17T09:04:08.778Z,3.43
2023-06-17T09:06:35.669Z,4.20
2023-06-17T09:09:02.595Z,3.90
2023-06-17T09:11:32.117Z,4.83
2023-06-17T09:14:01.298Z,3.67
2023-06-17T09:16:36.979Z,4.13
2023-06-17T09:19:10.151Z,3.80
2023-06-17T09:21:38.107Z,3.80
2023-06-17T09:24:06.862Z,4.03
2023-06-17T09:26:35.625Z,3.57
2023-06-17T09:29:07.828Z,4.17
2023-06-17T09:31:48.448Z,3.97
2023-06-17T09:34:16.208Z,3.93
2023-06-17T09:36:43.357Z,4.30
2023-06-17T09:39:12.263Z,4.50
2023-06-17T09:41:43.800Z,4.13
2023-06-17T09:44:11.772Z,4.20
2023-06-17T09:46:41.155Z,3.60
2023-06-17T09:49:17.630Z,3.90
2023-06-17T09:51:45.194Z,4.07
2023-06-17T09:54:12.109Z,3.57
2023-06-17T09:56:39.112Z,3.60
2023-06-17T09:59:08.575Z,3.67
2023-06-17T10:01:40.820Z,3.77
2023-06-17T10:04:08.701Z,4.37
2023-06-17T10:06:37.955Z,4.43
2023-06-17T10:09:07.445Z,3.80
2023-06-17T10:11:36.308Z,4.27
2023-06-17T10:14:08.256Z,3.90
2023-06-17T10:16:39.812Z,4.33
2023-06-17T10:19:09.243Z,3.73
2023-06-17T10:21:40.626Z,3.70
2023-06-17T10:24:08.990Z,3.77
2023-06-17T10:26:36.268Z,4.20
2023-06-17T10:29:08.367Z,4.70
2023-06-17T10:31:43.901Z,4.47
2023-06-17T10:34:23.679Z,4.30
2023-06-17T10:36:54.961Z,4.90
2023-06-17T10:39:21.956Z,4.30
2023-06-17T10:41:53.565Z,5.03
2023-06-17T10:44:42.708Z,4.13
2023-06-17T10:47:23.571Z,4.90
2023-06-17T10:49:52.968Z,4.70
2023-06-17T10:52:20.602Z,4.27
2023-06-17T10:54:56.793Z,4.37
2023-06-17T10:57:34.184Z,4.87
2023-06-17T11:00:11.920Z,3.90
2023-06-17T11:02:40.059Z,4.23
2023-06-17T11:05:08.324Z,3.87
2023-06-17T11:07:35.656Z,4.17
2023-06-17T11:10:03.604Z,3.80
2023-06-17T11:12:31.208Z,3.87
2023-06-17T11:15:01.504Z,4.13
2023-06-17T11:17:28.720Z,4.20
2023-06-17T11:19:56.440Z,4.47
2023-06-17T11:22:23.878Z,4.23
2023-06-17T11:24:50.798Z,3.93
2023-06-17T11:27:18.734Z,3.97
2023-06-17T11:29:48.116Z,4.00
2023-06-17T11:32:15.239Z,4.60
2023-06-17T11:34:42.765Z,4.30
2023-06-17T11:37:12.443Z,4.67
2023-06-17T11:39:40.078Z,4.37
2023-06-17T11:42:08.454Z,4.00
2023-06-17T11:44:36.418Z,3.90
2023-06-17T11:47:08.447Z,4.03
2023-06-17T11:49:36.068Z,3.77
2023-06-17T11:52:07.059Z,4.03
2023-06-17T11:54:34.199Z,4.10
2023-06-17T11:57:01.419Z,3.93
2023-06-17T11:59:29.693Z,4.13
2023-06-17T12:01:57.084Z,3.63
2023-06-17T12:04:24.585Z,4.13
2023-06-17T12:06:51.445Z,3.80
2023-06-17T12:09:18.284Z,3.50
2023-06-17T12:11:46.077Z,4.40
2023-06-17T12:14:14.039Z,4.33
2023-06-17T12:16:44.702Z,3.73
2023-06-17T12:19:21.993Z,3.93
2023-06-17T12:21:49.083Z,4.20
2023-06-17T12:24:17.027Z,3.77
2023-06-17T12:26:45.274Z,3.87
2023-06-17T12:29:24.493Z,4.60
2023-06-17T12:31:52.650Z,4.00
2023-06-17T12:34:19.590Z,3.90
2023-06-17T12:36:46.556Z,3.70
2023-06-17T12:39:13.810Z,3.93
2023-06-17T12:41:40.637Z,4.10
2023-06-17T12:44:07.504Z,4.50
2023-06-17T12:46:36.822Z,3.53
2023-06-17T12:49:04.368Z,3.97
2023-06-17T12:51:31.463Z,4.70
2023-06-17T12:53:58.366Z,3.73
2023-06-17T12:56:25.580Z,3.97
2023-06-17T12:59:14.070Z,3.90
2023-06-17T13:01:42.411Z,4.07
2023-06-17T13:04:09.742Z,4.00
2023-06-17T13:06:38.157Z,4.10
2023-06-17T13:09:05.214Z,4.20
2023-06-17T13:11:32.355Z,4.33
2023-06-17T13:13:59.290Z,4.17
2023-06-17T13:16:26.281Z,3.97
2023-06-17T13:18:54.413Z,4.27
2023-06-17T13:21:22.079Z,4.17
2023-06-17T13:23:49.589Z,4.30
2023-06-17T13:26:18.587Z,3.90
2023-06-17T13:28:45.473Z,4.57
2023-06-17T13:31:12.719Z,4.87
2023-06-17T13:33:39.501Z,4.83
2023-06-17T13:36:06.692Z,4.37
2023-06-17T13:38:33.468Z,4.77
2023-06-17T13:41:00.734Z,3.93
2023-06-17T13:43:27.765Z,4.27
2023-06-17T13:45:55.098Z,4.27
2023-06-17T13:48:22.380Z,3.77
2023-06-17T13:50:49.727Z,4.43
2023-06-17T13:53:16.988Z,4.37
2023-06-17T13:55:43.931Z,4.10
2023-06-17T13:58:11.156Z,4.20
2023-06-17T14:00:38.155Z,4.33
2023-06-17T14:03:05.094Z,4.20
2023-06-17T14:05:32.033Z,4.07
2023-06-17T14:07:59.035Z,4.50
2023-06-17T14:10:25.924Z,4.73
2023-06-17T14:12:53.023Z,4.00
2023-06-17T14:15:19.900Z,3.97
2023-06-17T14:17:46.902Z,4.23
2023-06-17T14:20:13.908Z,3.70
2023-06-17T14:22:40.737Z,3.53
2023-06-17T14:25:09.149Z,4.43
2023-06-17T14:27:40.006Z,4.50
2023-06-17T14:30:14.964Z,4.73
2023-06-17T14:32:46.721Z,4.27
2023-06-17T14:35:17.561Z,4.00
2023-06-17T14:37:46.597Z,4.43
2023-06-17T14:40:14.551Z,4.20
2023-06-17T14:42:42.038Z,4.60
2023-06-17T14:45:11.507Z,4.03
2023-06-17T14:47:42.498Z,4.57
2023-06-17T14:50:13.907Z,4.27
2023-06-17T14:52:42.589Z,4.03
2023-06-17T14:55:10.075Z,4.07
2023-06-17T14:57:37.423Z,4.60
2023-06-17T15:00:04.867Z,4.10
2023-06-17T15:02:49.225Z,4.43
2023-06-17T15:05:17.634Z,4.40
2023-06-17T15:07:44.623Z,3.80
2023-06-17T15:10:12.077Z,3.80
2023-06-17T15:12:42.858Z,3.83
2023-06-17T15:15:11.796Z,4.20
2023-06-17T15:17:39.362Z,3.87
2023-06-17T15:20:06.978Z,4.07
2023-06-17T15:22:34.001Z,4.03
2023-06-17T15:25:00.906Z,4.20
2023-06-17T15:27:27.788Z,3.83
2023-06-17T15:29:54.708Z,4.07
2023-06-17T15:32:23.389Z,4.50
2023-06-17T15:34:50.697Z,4.23
2023-06-17T15:37:17.742Z,4.07
2023-06-17T15:39:45.212Z,4.23
2023-06-17T15:42:13.066Z,4.93
2023-06-17T15:44:40.034Z,4.17
2023-06-17T15:47:07.072Z,4.10
2023-06-17T15:49:35.895Z,4.20
2023-06-17T15:52:04.151Z,4.20
2023-06-17T15:54:31.274Z,4.23
2023-06-17T15:56:58.425Z,4.10
2023-06-17T15:59:27.207Z,4.57
2023-06-17T16:01:54.510Z,4.20
2023-06-17T16:04:33.486Z,4.20
2023-06-17T16:07:05.020Z,3.97
2023-06-17T16:09:34.259Z,4.40
2023-06-17T16:12:01.739Z,4.23
2023-06-17T16:14:29.985Z,4.50
2023-06-17T16:16:57.172Z,4.73
2023-06-17T16:19:26.569Z,4.00
2023-06-17T16:21:55.132Z,4.80
2023-06-17T16:24:23.030Z,3.87
2023-06-17T16:26:50.557Z,4.67
2023-06-17T16:29:18.384Z,3.83
2023-06-17T16:31:46.070Z,4.60
2023-06-17T16:34:13.493Z,4.60
2023-06-17T16:36:40.990Z,4.40
2023-06-17T16:39:10.118Z,4.17
2023-06-17T16:41:39.074Z,4.37
2023-06-17T16:44:06.014Z,4.27
2023-06-17T16:46:32.962Z,4.23
2023-06-17T16:48:59.908Z,4.80
2023-06-17T16:51:27.149Z,4.07
2023-06-17T16:53:54.020Z,4.70
2023-06-17T16:56:20.986Z,4.30
2023-06-17T16:58:47.820Z,4.30
2023-06-17T17:01:14.787Z,4.00
2023-06-17T17:03:41.667Z,4.13
2023-06-17T17:06:09.576Z,4.50
2023-06-17T17:08:36.537Z,4.23
2023-06-17T17:11:03.665Z,4.47
2023-06-17T17:13:43.499Z,4.77
2023-06-17T17:16:14.547Z,4.40
2023-06-17T17:18:41.549Z,4.33
2023-06-17T17:21:08.434Z,4.53
2023-06-17T17:23:35.325Z,4.77
2023-06-17T17:26:02.186Z,4.33
2023-06-17T17:28:29.292Z,4.40
2023-06-17T17:30:56.412Z,4.63
2023-06-17T17:33:24.528Z,4.60
2023-06-17T17:35:51.890Z,4.33
2023-06-17T17:38:18.752Z,5.03
2023-06-17T17:40:45.753Z,4.70
2023-06-17T17:43:12.594Z,4.53
2023-06-17T17:45:39.498Z,4.70
2023-06-17T17:48:06.416Z,4.33
2023-06-17T17:50:34.443Z,4.80
2023-06-17T17:53:01.564Z,4.50
2023-06-17T17:55:28.838Z,4.93
2023-06-17T17:57:55.817Z,4.60
2023-06-17T18:00:24.533Z,4.83
2023-06-17T18:02:51.800Z,5.23
2023-06-17T18:05:18.720Z,4.60
2023-06-17T18:07:47.602Z,4.33
2023-06-17T18:10:16.682Z,4.80
2023-06-17T18:12:43.975Z,4.40
2023-06-17T18:15:12.639Z,4.83
2023-06-17T18:17:39.547Z,5.10
2023-06-17T18:20:09.601Z,5.00
2023-06-17T18:22:38.056Z,4.83
2023-06-17T18:25:06.488Z,4.73
2023-06-17T18:27:36.496Z,5.03
2023-06-17T18:30:05.176Z,4.50
2023-06-17T18:32:32.599Z,4.87
2023-06-17T18:34:59.643Z,5.50
2023-06-17T18:37:27.164Z,4.60
2023-06-17T18:39:54.065Z,5.10
2023-06-17T18:42:20.914Z,4.83
2023-06-17T18:44:48.381Z,4.90
2023-06-17T18:47:15.420Z,5.13
2023-06-17T18:49:43.049Z,4.97
2023-06-17T18:52:10.012Z,5.20
2023-06-17T18:54:36.912Z,5.20
2023-06-17T18:57:04.218Z,5.07
2023-06-17T18:59:31.668Z,5.17
2023-06-17T19:01:58.680Z,5.10
2023-06-17T19:04:25.716Z,5.67
2023-06-17T19:06:52.706Z,5.83
2023-06-17T19:09:19.700Z,6.00
2023-06-17T19:11:46.810Z,5.97
2023-06-17T19:14:13.783Z,6.37
2023-06-17T19:16:40.774Z,6.13
2023-06-17T19:19:07.686Z,5.90
2023-06-17T19:21:34.957Z,5.77
2023-06-17T19:24:01.842Z,6.13
2023-06-17T19:26:28.784Z,5.77
2023-06-17T19:28:55.752Z,5.90
2023-06-17T19:31:22.887Z,6.07
2023-06-17T19:33:49.773Z,6.47
2023-06-17T19:36:16.902Z,6.03
2023-06-17T19:38:43.994Z,5.87
2023-06-17T19:41:11.082Z,6.10
2023-06-17T19:43:38.005Z,6.10
2023-06-17T19:46:05.064Z,6.70
2023-06-17T19:48:32.504Z,6.43
2023-06-17T19:51:02.597Z,7.03
2023-06-17T19:53:29.642Z,6.83
2023-06-17T19:55:56.750Z,6.83
2023-06-17T19:58:23.862Z,6.43
2023-06-17T20:00:50.956Z,6.23
2023-06-17T20:03:18.067Z,7.47
2023-06-17T20:05:46.381Z,7.63
2023-06-17T20:08:14.530Z,6.80
2023-06-17T20:10:42.499Z,7.40
2023-06-17T20:13:09.947Z,6.97
2023-06-17T20:15:38.134Z,6.83
2023-06-17T20:18:05.609Z,7.20
2023-06-17T20:20:33.319Z,6.83
2023-06-17T20:23:00.367Z,7.27
2023-06-17T20:25:27.317Z,7.03
2023-06-17T20:27:54.254Z,7.83
2023-06-17T20:30:21.338Z,6.97
2023-06-17T20:32:48.678Z,6.43
2023-06-17T20:35:15.794Z,6.03
2023-06-17T20:37:43.528Z,6.27
2023-06-17T20:40:10.681Z,6.57
2023-06-17T20:42:38.035Z,6.73
2023-06-17T20:45:08.169Z,7.73
2023-06-17T20:47:35.197Z,7.17
2023-06-17T20:50:02.263Z,6.23
2023-06-17T20:52:29.310Z,6.73
2023-06-17T20:54:56.197Z,6.30
2023-06-17T20:57:23.011Z,6.30
2023-06-17T20:59:50.625Z,6.77
2023-06-17T21:02:18.916Z,6.40
2023-06-17T21:04:45.972Z,6.40
2023-06-17T21:07:12.843Z,6.03
2023-06-17T21:09:40.536Z,6.93
2023-06-17T21:12:07.622Z,7.17
2023-06-17T21:14:34.502Z,6.97
2023-06-17T21:17:01.444Z,6.90
2023-06-17T21:19:28.318Z,6.63
2023-06-17T21:21:55.422Z,6.60
2023-06-17T21:24:22.406Z,6.50
2023-06-17T21:26:49.285Z,6.43
2023-06-17T21:29:16.123Z,7.23
2023-06-17T21:31:43.149Z,7.20
2023-06-17T21:34:10.204Z,6.73
2023-06-17T21:36:37.070Z,7.43
2023-06-17T21:39:03.990Z,6.30
2023-06-17T21:41:30.793Z,7.13
2023-06-17T21:43:57.734Z,7.17
2023-06-17T21:46:27.716Z,6.73
2023-06-17T21:48:56.136Z,7.33
2023-06-17T21:51:23.238Z,7.37
2023-06-17T21:53:50.185Z,7.10
2023-06-17T21:56:18.029Z,6.97
2023-06-17T21:58:44.962Z,6.57
2023-06-17T22:01:11.919Z,6.50
2023-06-17T22:03:41.201Z,7.37
2023-06-17T22:06:08.799Z,9.03
2023-06-17T22:08:42.761Z,8.87
2023-06-17T22:11:12.166Z,10.07
2023-06-17T22:13:39.349Z,7.97
2023-06-17T22:16:06.492Z,7.07
2023-06-17T22:18:33.400Z,8.70
2023-06-17T22:21:00.258Z,8.40
2023-06-17T22:23:27.226Z,7.73
2023-06-17T22:25:54.132Z,7.10
2023-06-17T22:28:21.222Z,7.07
2023-06-17T22:30:48.137Z,7.07
2023-06-17T22:33:15.026Z,6.33
2023-06-17T22:35:42.128Z,6.93
2023-06-17T22:38:09.028Z,7.00
2023-06-17T22:40:35.990Z,7.30
2023-06-17T22:43:03.002Z,7.53
2023-06-17T22:45:29.878Z,7.10
2023-06-17T22:47:56.970Z,6.80
2023-06-17T22:50:24.363Z,6.80
2023-06-17T22:52:51.818Z,7.17
2023-06-17T22:55:18.780Z,7.37
2023-06-17T22:57:45.623Z,7.40
2023-06-17T23:00:13.228Z,7.23
2023-06-17T23:02:40.183Z,7.40
2023-06-17T23:05:07.458Z,6.97
2023-06-17T23:07:34.361Z,7.00
2023-06-17T23:10:01.352Z,7.23
2023-06-17T23:12:28.221Z,6.43
2023-06-17T23:14:55.039Z,7.10
2023-06-17T23:17:22.489Z,7.83
2023-06-17T23:19:49.487Z,6.90
2023-06-17T23:22:17.405Z,7.30
2023-06-17T23:24:47.510Z,7.43
2023-06-17T23:27:16.404Z,7.30
2023-06-17T23:29:43.323Z,7.00
2023-06-17T23:32:10.211Z,7.53
2023-06-17T23:34:37.381Z,7.40
2023-06-17T23:37:04.595Z,7.27
2023-06-17T23:39:31.471Z,7.40
2023-06-17T23:41:58.307Z,7.00
2023-06-17T23:44:26.105Z,6.40
2023-06-17T23:46:53.010Z,6.80
2023-06-17T23:49:19.975Z,7.33
2023-06-17T23:51:47.051Z,7.17
2023-06-17T23:54:13.963Z,7.10
2023-06-17T23:56:41.078Z,7.27
2023-06-17T23:59:08.220Z,6.87
